Time;durP1;ratioP1;P1;durP2;ratioP2;P2;SDS_P1;SDS_P2;PMS_P1;PMS_P2;Temp;Humidity;BMP_temperature;BMP_pressure;BME280_temperature;BME280_humidity;BME280_pressure;Samples;Min_cycle;Max_cycle;Signal;HPM_P1;HPM_P2
2022/09/26 00:00:15;;;;;;;6.77;3.20;;;;;;;;;;514489;28;4030;-62
2022/09/26 00:00:31;;;;;;;7.82;3.10;;;;;;;;;;519225;28;1157;-62
2022/09/26 00:00:46;;;;;;;7.43;3.30;;;;;;;;;;519616;28;1174;-63
2022/09/26 00:01:15;;;;;;;6.15;3.33;;;;;;;;;;522377;28;1166;-62
2022/09/26 00:01:35;;;;;;;6.15;3.20;;;;;;;;;;522682;28;1335;-63
2022/09/26 00:01:51;;;;;;;6.05;3.22;;;;;;;;;;523031;28;1428;-63
2022/09/26 00:02:06;;;;;;;6.75;3.30;;;;;;;;;;523058;28;1109;-62
2022/09/26 00:02:22;;;;;;;6.35;3.10;;;;;;;;;;523600;28;1320;-63
2022/09/26 00:02:37;;;;;;;5.73;3.00;;;;;;;;;;518676;28;1067;-62
2022/09/26 00:02:52;;;;;;;4.70;3.00;;;;;;;;;;518934;28;1517;-64
2022/09/26 00:03:09;;;;;;;5.10;3.05;;;;;;;;;;517910;28;1188;-63
2022/09/26 00:03:24;;;;;;;6.65;3.13;;;;;;;;;;515355;28;1579;-63
2022/09/26 00:03:45;;;;;;;5.50;2.87;;;;;;;;;;512845;28;1942;-63
2022/09/26 00:04:07;;;;;;;5.22;3.00;;;;;;;;;;515746;28;1075;-63
2022/09/26 00:04:25;;;;;;;6.72;3.28;;;;;;;;;;518211;28;1286;-63
2022/09/26 00:04:41;;;;;;;7.53;3.40;;;;;;;;;;520398;28;992;-63
2022/09/26 00:04:56;;;;;;;7.50;3.30;;;;;;;;;;518727;28;1042;-63
2022/09/26 00:05:12;;;;;;;7.80;3.37;;;;;;;;;;520788;28;1216;-62
2022/09/26 00:05:27;;;;;;;8.13;3.30;;;;;;;;;;523324;28;1169;-62
2022/09/26 00:05:42;;;;;;;8.80;3.20;;;;;;;;;;521822;28;1285;-63
2022/09/26 00:06:06;;;;;;;6.50;3.40;;;;;;;;;;520040;28;1370;-62
2022/09/26 00:06:22;;;;;;;5.97;3.30;;;;;;;;;;521110;28;1117;-63
2022/09/26 00:06:38;;;;;;;6.68;3.42;;;;;;;;;;518760;28;1461;-63
2022/09/26 00:06:55;;;;;;;6.30;3.27;;;;;;;;;;521043;28;996;-62
2022/09/26 00:07:10;;;;;;;5.50;3.05;;;;;;;;;;521922;28;1446;-63
2022/09/26 00:07:25;;;;;;;5.53;2.97;;;;;;;;;;521258;28;1296;-63
2022/09/26 00:07:40;;;;;;;5.90;3.20;;;;;;;;;;521816;28;1190;-62
2022/09/26 00:07:56;;;;;;;5.17;3.20;;;;;;;;;;525192;28;982;-62
2022/09/26 00:08:11;;;;;;;4.83;3.27;;;;;;;;;;523127;28;1301;-62
2022/09/26 00:08:26;;;;;;;5.30;3.30;;;;;;;;;;521604;28;1373;-63
2022/09/26 00:08:43;;;;;;;6.07;3.33;;;;;;;;;;524376;28;1322;-63
2022/09/26 00:08:58;;;;;;;6.15;3.20;;;;;;;;;;523562;28;1526;-63
2022/09/26 00:09:15;;;;;;;6.37;2.97;;;;;;;;;;524271;28;1191;-62
2022/09/26 00:09:30;;;;;;;5.32;3.00;;;;;;;;;;522358;28;1018;-63
2022/09/26 00:09:47;;;;;;;5.18;3.10;;;;;;;;;;523819;28;1018;-63
2022/09/26 00:10:03;;;;;;;5.45;3.00;;;;;;;;;;523944;28;979;-63
2022/09/26 00:10:18;;;;;;;4.67;3.00;;;;;;;;;;523369;27;1101;-63
2022/09/26 00:10:34;;;;;;;5.43;3.00;;;;;;;;;;523865;28;1243;-63
2022/09/26 00:10:56;;;;;;;5.13;2.93;;;;;;;;;;522654;28;1252;-63
2022/09/26 00:11:14;;;;;;;5.45;3.03;;;;;;;;;;522361;28;1098;-62
2022/09/26 00:11:32;;;;;;;5.78;3.10;;;;;;;;;;522855;28;1010;-62
2022/09/26 00:11:48;;;;;;;4.68;3.10;;;;;;;;;;522832;28;1109;-63
2022/09/26 00:12:03;;;;;;;4.85;3.38;;;;;;;;;;521326;28;1420;-62
2022/09/26 00:12:18;;;;;;;6.43;3.33;;;;;;;;;;521477;28;1189;-63
2022/09/26 00:12:34;;;;;;;6.47;3.20;;;;;;;;;;520225;28;1207;-62
2022/09/26 00:12:49;;;;;;;4.53;3.00;;;;;;;;;;521574;28;1149;-62
2022/09/26 00:13:04;;;;;;;4.45;2.85;;;;;;;;;;522678;28;1133;-63
2022/09/26 00:13:19;;;;;;;5.60;2.80;;;;;;;;;;522869;28;1227;-63
2022/09/26 00:13:38;;;;;;;5.53;2.80;;;;;;;;;;520629;28;1233;-62
2022/09/26 00:13:57;;;;;;;5.43;2.90;;;;;;;;;;522443;28;1174;-63
2022/09/26 00:14:15;;;;;;;7.43;3.20;;;;;;;;;;521873;28;1413;-63
2022/09/26 00:14:30;;;;;;;7.00;3.30;;;;;;;;;;522405;28;1082;-62
2022/09/26 00:14:45;;;;;;;6.57;3.07;;;;;;;;;;523600;28;1196;-63
2022/09/26 00:15:01;;;;;;;5.17;2.80;;;;;;;;;;523467;28;2141;-62
2022/09/26 00:15:16;;;;;;;5.18;2.72;;;;;;;;;;520959;28;4933;-62
2022/09/26 00:15:31;;;;;;;5.67;2.90;;;;;;;;;;524161;28;1309;-62
2022/09/26 00:15:47;;;;;;;6.57;2.93;;;;;;;;;;523687;28;1263;-62
2022/09/26 00:16:02;;;;;;;6.63;2.90;;;;;;;;;;522374;28;1249;-62
2022/09/26 00:16:18;;;;;;;4.97;2.93;;;;;;;;;;521713;28;1209;-62
2022/09/26 00:16:34;;;;;;;4.85;2.80;;;;;;;;;;523478;28;1100;-63
2022/09/26 00:16:50;;;;;;;5.20;2.85;;;;;;;;;;523789;28;1183;-62
2022/09/26 00:17:05;;;;;;;5.70;3.00;;;;;;;;;;522537;28;1101;-62
2022/09/26 00:17:20;;;;;;;6.43;2.93;;;;;;;;;;521339;28;1420;-63
2022/09/26 00:17:36;;;;;;;6.20;2.97;;;;;;;;;;521168;28;1247;-62
2022/09/26 00:17:51;;;;;;;5.63;2.95;;;;;;;;;;522648;28;990;-62
2022/09/26 00:18:06;;;;;;;5.23;3.00;;;;;;;;;;522489;28;1275;-63
2022/09/26 00:18:23;;;;;;;4.70;2.93;;;;;;;;;;523453;28;1603;-62
2022/09/26 00:18:39;;;;;;;4.63;2.90;;;;;;;;;;522309;28;1247;-62
2022/09/26 00:18:56;;;;;;;4.30;2.80;;;;;;;;;;524381;28;1014;-62
2022/09/26 00:19:12;;;;;;;5.22;3.00;;;;;;;;;;523301;28;1319;-63
2022/09/26 00:19:27;;;;;;;6.80;3.05;;;;;;;;;;522802;28;1224;-62
2022/09/26 00:19:43;;;;;;;6.50;2.90;;;;;;;;;;523598;27;1137;-62
2022/09/26 00:19:58;;;;;;;4.97;3.00;;;;;;;;;;522400;28;1377;-63
2022/09/26 00:20:13;;;;;;;4.67;2.97;;;;;;;;;;520390;28;1038;-62
2022/09/26 00:20:29;;;;;;;6.40;3.03;;;;;;;;;;522295;28;1162;-62
2022/09/26 00:20:44;;;;;;;6.47;3.15;;;;;;;;;;520496;28;1036;-63
2022/09/26 00:21:08;;;;;;;5.10;3.10;;;;;;;;;;521828;28;1125;-62
2022/09/26 00:21:25;;;;;;;4.93;3.08;;;;;;;;;;522321;28;1141;-62
2022/09/26 00:21:41;;;;;;;5.63;2.90;;;;;;;;;;521606;28;942;-63
2022/09/26 00:21:56;;;;;;;5.32;2.90;;;;;;;;;;526476;27;1129;-62
2022/09/26 00:22:11;;;;;;;4.93;3.00;;;;;;;;;;521770;28;1360;-62
2022/09/26 00:22:27;;;;;;;5.70;3.10;;;;;;;;;;523149;28;1243;-64
2022/09/26 00:22:42;;;;;;;5.95;3.17;;;;;;;;;;523162;28;1114;-62
2022/09/26 00:22:58;;;;;;;6.83;3.33;;;;;;;;;;521893;28;1172;-62
2022/09/26 00:23:14;;;;;;;6.50;3.30;;;;;;;;;;522213;28;1137;-63
2022/09/26 00:23:29;;;;;;;5.10;3.00;;;;;;;;;;520272;28;1982;-63
2022/09/26 00:23:46;;;;;;;5.05;3.00;;;;;;;;;;522082;28;1160;-63
2022/09/26 00:24:02;;;;;;;5.82;3.13;;;;;;;;;;522335;28;1168;-63
2022/09/26 00:24:18;;;;;;;6.20;3.28;;;;;;;;;;523851;28;1121;-62
2022/09/26 00:24:33;;;;;;;5.80;3.13;;;;;;;;;;523834;28;1141;-63
2022/09/26 00:24:49;;;;;;;6.93;3.35;;;;;;;;;;521648;28;1193;-62
2022/09/26 00:25:04;;;;;;;7.03;3.43;;;;;;;;;;523990;28;1176;-63
2022/09/26 00:25:19;;;;;;;5.87;3.07;;;;;;;;;;523333;28;1150;-63
2022/09/26 00:25:35;;;;;;;5.67;2.97;;;;;;;;;;519722;28;1164;-63
2022/09/26 00:25:51;;;;;;;6.03;3.23;;;;;;;;;;521105;28;1187;-62
2022/09/26 00:26:06;;;;;;;5.63;3.30;;;;;;;;;;520569;28;1256;-63
2022/09/26 00:26:24;;;;;;;5.57;3.35;;;;;;;;;;521959;28;1102;-62
2022/09/26 00:26:40;;;;;;;5.25;3.15;;;;;;;;;;520222;28;1121;-63
2022/09/26 00:26:55;;;;;;;6.07;3.10;;;;;;;;;;520129;28;982;-63
2022/09/26 00:27:10;;;;;;;5.63;3.10;;;;;;;;;;520442;28;1142;-62
2022/09/26 00:27:25;;;;;;;6.67;3.20;;;;;;;;;;520693;28;1114;-63
2022/09/26 00:27:41;;;;;;;6.85;3.47;;;;;;;;;;516750;28;1315;-62
2022/09/26 00:27:56;;;;;;;6.17;3.30;;;;;;;;;;519751;28;1102;-62
2022/09/26 00:28:11;;;;;;;7.33;3.17;;;;;;;;;;519158;28;1172;-63
2022/09/26 00:28:27;;;;;;;6.20;3.20;;;;;;;;;;522318;28;1150;-62
2022/09/26 00:28:43;;;;;;;5.32;3.20;;;;;;;;;;521614;28;1063;-62
2022/09/26 00:29:00;;;;;;;4.97;3.13;;;;;;;;;;519083;28;1263;-62
2022/09/26 00:29:16;;;;;;;5.03;2.97;;;;;;;;;;520220;28;1224;-63
2022/09/26 00:29:31;;;;;;;4.80;2.90;;;;;;;;;;521133;28;1246;-63
2022/09/26 00:29:46;;;;;;;5.43;3.10;;;;;;;;;;521340;28;1149;-62
2022/09/26 00:30:02;;;;;;;6.07;3.20;;;;;;;;;;520673;28;1915;-62
2022/09/26 00:30:17;;;;;;;5.03;3.10;;;;;;;;;;521415;28;4064;-62
2022/09/26 00:30:35;;;;;;;5.60;3.15;;;;;;;;;;522038;28;1163;-62
2022/09/26 00:30:50;;;;;;;5.68;3.30;;;;;;;;;;520936;28;1232;-63
2022/09/26 00:31:09;;;;;;;5.03;3.27;;;;;;;;;;523072;28;1030;-62
2022/09/26 00:31:27;;;;;;;5.93;3.20;;;;;;;;;;522220;28;1654;-62
2022/09/26 00:31:44;;;;;;;5.00;2.95;;;;;;;;;;521368;28;1376;-62
2022/09/26 00:32:00;;;;;;;6.18;3.20;;;;;;;;;;520777;28;1300;-62
2022/09/26 00:32:15;;;;;;;6.40;3.20;;;;;;;;;;519250;28;1161;-62
2022/09/26 00:32:30;;;;;;;4.90;3.00;;;;;;;;;;521416;28;1186;-62
2022/09/26 00:32:46;;;;;;;5.20;2.87;;;;;;;;;;519821;28;1237;-62
2022/09/26 00:33:01;;;;;;;5.20;2.87;;;;;;;;;;520997;28;1066;-62
2022/09/26 00:33:16;;;;;;;4.93;3.03;;;;;;;;;;520851;28;1177;-62
2022/09/26 00:33:31;;;;;;;6.80;3.28;;;;;;;;;;522637;28;1157;-62
2022/09/26 00:33:47;;;;;;;6.37;3.30;;;;;;;;;;521105;28;1310;-63
2022/09/26 00:34:03;;;;;;;4.13;3.08;;;;;;;;;;523347;28;1027;-63
2022/09/26 00:34:19;;;;;;;4.03;3.00;;;;;;;;;;522539;28;1082;-63
2022/09/26 00:34:34;;;;;;;5.05;3.28;;;;;;;;;;522425;28;1345;-63
2022/09/26 00:34:49;;;;;;;6.82;3.40;;;;;;;;;;519130;28;1145;-62
2022/09/26 00:35:05;;;;;;;6.70;3.40;;;;;;;;;;520776;28;1091;-62
2022/09/26 00:35:20;;;;;;;4.28;3.22;;;;;;;;;;520045;28;1125;-63
2022/09/26 00:35:36;;;;;;;4.53;3.10;;;;;;;;;;520931;28;1246;-62
2022/09/26 00:35:53;;;;;;;5.05;3.13;;;;;;;;;;521662;28;1173;-62
2022/09/26 00:36:09;;;;;;;5.63;3.30;;;;;;;;;;521383;28;1226;-62
2022/09/26 00:36:25;;;;;;;5.90;3.40;;;;;;;;;;521943;28;1393;-63
2022/09/26 00:36:41;;;;;;;5.93;3.40;;;;;;;;;;521764;28;3168;-62
2022/09/26 00:36:57;;;;;;;5.20;3.37;;;;;;;;;;520264;28;1173;-62
2022/09/26 00:37:12;;;;;;;5.95;3.47;;;;;;;;;;517877;28;1191;-62
2022/09/26 00:37:27;;;;;;;7.20;3.33;;;;;;;;;;520134;28;1149;-62
2022/09/26 00:37:42;;;;;;;6.83;3.30;;;;;;;;;;518951;28;1039;-63
2022/09/26 00:37:58;;;;;;;6.20;3.33;;;;;;;;;;519566;28;1126;-63
2022/09/26 00:38:13;;;;;;;4.85;3.15;;;;;;;;;;518540;28;1106;-62
2022/09/26 00:38:28;;;;;;;5.67;3.20;;;;;;;;;;521647;28;1141;-63
2022/09/26 00:38:44;;;;;;;6.33;3.30;;;;;;;;;;524773;28;1163;-62
2022/09/26 00:39:00;;;;;;;6.10;3.40;;;;;;;;;;524577;28;1184;-63
2022/09/26 00:39:15;;;;;;;6.13;3.40;;;;;;;;;;524979;27;1011;-62
2022/09/26 00:39:31;;;;;;;6.87;3.43;;;;;;;;;;524727;28;1283;-62
2022/09/26 00:39:46;;;;;;;8.52;3.70;;;;;;;;;;526505;28;1236;-63
2022/09/26 00:40:03;;;;;;;8.67;3.63;;;;;;;;;;525618;28;1143;-63
2022/09/26 00:40:18;;;;;;;6.97;3.47;;;;;;;;;;525118;27;1189;-63
2022/09/26 00:40:33;;;;;;;7.22;3.50;;;;;;;;;;525025;28;952;-63
2022/09/26 00:40:49;;;;;;;7.83;3.43;;;;;;;;;;523153;28;1149;-62
2022/09/26 00:41:05;;;;;;;7.18;3.60;;;;;;;;;;524588;28;1213;-62
2022/09/26 00:41:21;;;;;;;7.43;3.60;;;;;;;;;;523227;28;1130;-63
2022/09/26 00:41:36;;;;;;;7.25;3.47;;;;;;;;;;523226;28;1134;-62
2022/09/26 00:41:51;;;;;;;5.93;3.43;;;;;;;;;;522567;28;1134;-63
2022/09/26 00:42:12;;;;;;;4.80;3.30;;;;;;;;;;522670;28;1117;-63
2022/09/26 00:42:28;;;;;;;7.03;3.60;;;;;;;;;;524190;28;1131;-65
2022/09/26 00:42:43;;;;;;;6.13;3.60;;;;;;;;;;523160;28;998;-63
2022/09/26 00:42:58;;;;;;;6.07;3.50;;;;;;;;;;524647;28;1138;-63
2022/09/26 00:43:47;;;;;;;5.53;3.50;;;;;;;;;;523812;28;1150;-63
2022/09/26 00:44:22;;;;;;;5.95;3.50;;;;;;;;;;519832;28;1233;-63
2022/09/26 00:44:45;;;;;;;6.05;3.55;;;;;;;;;;520919;28;1242;-62
2022/09/26 00:45:00;;;;;;;5.55;3.65;;;;;;;;;;521770;28;1932;-63
2022/09/26 00:45:16;;;;;;;5.80;3.70;;;;;;;;;;518647;28;4017;-62
2022/09/26 00:45:32;;;;;;;6.38;3.80;;;;;;;;;;519853;28;1193;-63
2022/09/26 00:45:47;;;;;;;7.18;3.80;;;;;;;;;;522220;28;971;-63
2022/09/26 00:46:27;;;;;;;6.27;3.90;;;;;;;;;;519448;28;1323;-63
2022/09/26 00:46:46;;;;;;;6.60;3.75;;;;;;;;;;523267;28;1129;-63
2022/09/26 00:47:03;;;;;;;6.78;3.70;;;;;;;;;;522102;28;1090;-62
2022/09/26 00:47:27;;;;;;;6.10;3.78;;;;;;;;;;523930;28;1121;-63
2022/09/26 00:48:00;;;;;;;5.47;3.60;;;;;;;;;;521310;28;1421;-62
2022/09/26 00:48:17;;;;;;;5.88;3.45;;;;;;;;;;523109;28;1154;-62
2022/09/26 00:48:34;;;;;;;5.90;3.50;;;;;;;;;;522949;28;1247;-63
2022/09/26 00:49:15;;;;;;;5.38;3.30;;;;;;;;;;523877;28;1638;-63
2022/09/26 00:49:37;;;;;;;6.95;3.60;;;;;;;;;;517972;28;1376;-62
2022/09/26 00:49:58;;;;;;;7.28;3.30;;;;;;;;;;520647;28;1121;-63
2022/09/26 00:50:23;;;;;;;6.25;3.20;;;;;;;;;;519310;28;1291;-63
2022/09/26 00:50:40;;;;;;;5.55;3.10;;;;;;;;;;524177;28;1002;-62
2022/09/26 00:50:56;;;;;;;6.00;3.08;;;;;;;;;;526050;28;991;-63
2022/09/26 00:51:11;;;;;;;7.20;3.17;;;;;;;;;;522152;28;1235;-62
2022/09/26 00:51:27;;;;;;;5.03;3.00;;;;;;;;;;523755;28;1075;-62
2022/09/26 00:51:49;;;;;;;4.25;3.03;;;;;;;;;;522843;28;1354;-62
2022/09/26 00:52:23;;;;;;;4.70;3.00;;;;;;;;;;522883;28;1224;-62
2022/09/26 00:52:52;;;;;;;5.80;3.00;;;;;;;;;;523597;28;1124;-62
2022/09/26 00:53:13;;;;;;;5.82;2.90;;;;;;;;;;523664;28;871;-62
2022/09/26 00:53:34;;;;;;;5.68;2.95;;;;;;;;;;522706;28;1392;-62
2022/09/26 00:53:52;;;;;;;7.78;3.10;;;;;;;;;;524688;28;1105;-62
2022/09/26 00:54:11;;;;;;;7.47;3.20;;;;;;;;;;519435;28;1393;-62
2022/09/26 00:54:28;;;;;;;6.55;3.30;;;;;;;;;;522332;28;1002;-62
2022/09/26 00:54:49;;;;;;;6.00;3.20;;;;;;;;;;520422;28;2532;-63
2022/09/26 00:55:07;;;;;;;7.35;3.40;;;;;;;;;;518633;28;1092;-62
2022/09/26 00:55:27;;;;;;;7.85;3.47;;;;;;;;;;519633;28;1547;-62
2022/09/26 00:55:54;;;;;;;6.88;3.10;;;;;;;;;;518433;28;1025;-63
2022/09/26 00:56:17;;;;;;;5.10;3.10;;;;;;;;;;520106;28;1477;-62
2022/09/26 00:56:34;;;;;;;4.35;2.97;;;;;;;;;;518104;28;2123;-63
2022/09/26 00:56:54;;;;;;;5.45;3.10;;;;;;;;;;518694;28;1196;-62
2022/09/26 00:57:16;;;;;;;6.35;3.30;;;;;;;;;;516457;28;1276;-62
2022/09/26 00:57:36;;;;;;;4.80;3.22;;;;;;;;;;520026;28;1308;-62
2022/09/26 00:58:03;;;;;;;6.13;3.28;;;;;;;;;;519886;28;1184;-63
2022/09/26 00:58:30;;;;;;;7.60;3.58;;;;;;;;;;522217;28;1189;-62
2022/09/26 00:58:55;;;;;;;6.38;3.28;;;;;;;;;;523801;28;1142;-62
2022/09/26 00:59:14;;;;;;;6.57;3.20;;;;;;;;;;521233;28;1120;-63
2022/09/26 00:59:34;;;;;;;6.68;3.58;;;;;;;;;;522566;28;1266;-62
2022/09/26 00:59:57;;;;;;;7.45;3.45;;;;;;;;;;520728;28;1295;-62
2022/09/26 01:00:31;;;;;;;7.64;3.56;;;;;;;;;;467902;28;10000468;-63
2022/09/26 01:00:48;;;;;;;7.25;3.50;;;;;;;;;;521092;28;1385;-62
2022/09/26 01:01:05;;;;;;;7.75;3.47;;;;;;;;;;516769;28;1236;-63
2022/09/26 01:01:21;;;;;;;7.75;3.70;;;;;;;;;;519211;28;1188;-62
2022/09/26 01:01:36;;;;;;;6.35;3.72;;;;;;;;;;517555;28;1236;-63
2022/09/26 01:01:54;;;;;;;7.47;3.70;;;;;;;;;;516552;28;1153;-62
2022/09/26 01:02:10;;;;;;;6.63;4.00;;;;;;;;;;518290;28;1232;-62
2022/09/26 01:02:27;;;;;;;7.67;4.20;;;;;;;;;;522044;28;1042;-63
2022/09/26 01:02:44;;;;;;;6.47;3.83;;;;;;;;;;521927;28;1188;-62
2022/09/26 01:03:00;;;;;;;6.35;3.80;;;;;;;;;;524546;28;1203;-62
2022/09/26 01:03:18;;;;;;;6.38;3.80;;;;;;;;;;524859;28;1022;-63
2022/09/26 01:03:35;;;;;;;5.95;3.72;;;;;;;;;;520378;28;1976;-62
2022/09/26 01:03:51;;;;;;;5.85;3.95;;;;;;;;;;523283;28;1031;-62
2022/09/26 01:04:07;;;;;;;5.97;4.03;;;;;;;;;;523661;28;1097;-62
2022/09/26 01:04:26;;;;;;;5.72;3.90;;;;;;;;;;522379;28;1238;-62
2022/09/26 01:04:44;;;;;;;5.05;3.70;;;;;;;;;;523209;28;1031;-62
2022/09/26 01:05:00;;;;;;;6.78;3.55;;;;;;;;;;521729;28;1405;-63
2022/09/26 01:05:18;;;;;;;5.82;3.55;;;;;;;;;;522403;28;1284;-62
2022/09/26 01:05:36;;;;;;;5.90;3.55;;;;;;;;;;521986;28;1113;-62
2022/09/26 01:05:51;;;;;;;5.78;3.42;;;;;;;;;;523770;28;1157;-62
2022/09/26 01:06:07;;;;;;;5.03;3.40;;;;;;;;;;524082;28;1184;-62
2022/09/26 01:06:22;;;;;;;5.13;3.20;;;;;;;;;;523243;28;1289;-62
2022/09/26 01:06:38;;;;;;;5.33;3.33;;;;;;;;;;523364;28;1161;-63
2022/09/26 01:06:59;;;;;;;6.88;3.60;;;;;;;;;;523321;28;1077;-62
2022/09/26 01:07:20;;;;;;;6.35;3.40;;;;;;;;;;524417;28;1105;-62
2022/09/26 01:07:36;;;;;;;4.88;3.00;;;;;;;;;;522805;28;1220;-62
2022/09/26 01:07:54;;;;;;;4.32;3.25;;;;;;;;;;522393;28;1189;-62
2022/09/26 01:08:12;;;;;;;5.88;3.60;;;;;;;;;;520176;28;1325;-63
2022/09/26 01:08:35;;;;;;;5.88;3.60;;;;;;;;;;521104;28;1090;-62
2022/09/26 01:08:57;;;;;;;4.43;3.35;;;;;;;;;;521836;28;1066;-63
2022/09/26 01:09:13;;;;;;;7.25;3.38;;;;;;;;;;520381;28;1520;-62
2022/09/26 01:09:30;;;;;;;5.75;3.22;;;;;;;;;;519927;28;1254;-62
2022/09/26 01:09:46;;;;;;;5.07;3.33;;;;;;;;;;517830;28;1074;-63
2022/09/26 01:10:06;;;;;;;4.82;3.33;;;;;;;;;;518933;28;1141;-63
2022/09/26 01:10:21;;;;;;;4.70;3.25;;;;;;;;;;521861;28;1145;-62
2022/09/26 01:10:37;;;;;;;5.30;3.50;;;;;;;;;;521661;28;1110;-62
2022/09/26 01:10:53;;;;;;;6.88;3.58;;;;;;;;;;520940;28;1137;-63
2022/09/26 01:11:10;;;;;;;7.28;3.63;;;;;;;;;;520541;28;1079;-62
2022/09/26 01:11:26;;;;;;;6.47;3.70;;;;;;;;;;525296;28;1172;-63
2022/09/26 01:11:43;;;;;;;5.63;3.60;;;;;;;;;;525805;28;1031;-62
2022/09/26 01:12:01;;;;;;;5.30;3.53;;;;;;;;;;523022;28;1184;-63
2022/09/26 01:12:19;;;;;;;5.68;3.40;;;;;;;;;;526881;28;1133;-62
2022/09/26 01:12:36;;;;;;;4.82;3.38;;;;;;;;;;526779;28;1142;-63
2022/09/26 01:12:52;;;;;;;5.38;3.40;;;;;;;;;;525489;28;1128;-62
2022/09/26 01:13:07;;;;;;;6.37;3.70;;;;;;;;;;525382;28;1241;-63
2022/09/26 01:13:25;;;;;;;7.00;3.58;;;;;;;;;;523370;28;2432;-63
2022/09/26 01:13:42;;;;;;;8.32;3.38;;;;;;;;;;524554;28;1343;-63
2022/09/26 01:13:57;;;;;;;7.40;3.45;;;;;;;;;;522206;28;1408;-62
2022/09/26 01:14:13;;;;;;;6.65;3.58;;;;;;;;;;521514;28;1219;-63
2022/09/26 01:14:30;;;;;;;5.77;3.50;;;;;;;;;;518325;28;1188;-62
2022/09/26 01:14:47;;;;;;;4.90;3.20;;;;;;;;;;518099;28;1390;-63
2022/09/26 01:15:05;;;;;;;4.38;3.20;;;;;;;;;;515924;28;1138;-62
2022/09/26 01:15:20;;;;;;;6.10;3.33;;;;;;;;;;518160;28;4106;-62
2022/09/26 01:15:35;;;;;;;6.37;3.40;;;;;;;;;;516833;28;1341;-63
2022/09/26 01:15:51;;;;;;;5.10;3.33;;;;;;;;;;519409;28;1409;-62
2022/09/26 01:16:06;;;;;;;5.33;3.40;;;;;;;;;;519398;28;1237;-62
2022/09/26 01:16:22;;;;;;;5.47;3.30;;;;;;;;;;518255;28;1241;-62
2022/09/26 01:16:41;;;;;;;5.40;3.20;;;;;;;;;;519447;28;1151;-63
2022/09/26 01:16:56;;;;;;;6.45;3.42;;;;;;;;;;520125;28;1346;-62
2022/09/26 01:17:12;;;;;;;7.67;3.57;;;;;;;;;;519819;28;1051;-62
2022/09/26 01:17:27;;;;;;;7.15;3.42;;;;;;;;;;522160;28;1329;-62
2022/09/26 01:17:44;;;;;;;6.30;3.40;;;;;;;;;;520696;28;1007;-62
2022/09/26 01:17:59;;;;;;;6.45;3.50;;;;;;;;;;521165;28;1146;-63
2022/09/26 01:18:15;;;;;;;6.13;3.20;;;;;;;;;;520069;28;1267;-63
2022/09/26 01:18:30;;;;;;;5.97;3.20;;;;;;;;;;521502;28;1089;-62
2022/09/26 01:18:46;;;;;;;6.32;3.35;;;;;;;;;;521046;28;1114;-63
2022/09/26 01:19:05;;;;;;;5.82;3.30;;;;;;;;;;521952;28;1122;-63
2022/09/26 01:19:41;;;;;;;4.45;3.35;;;;;;;;;;524170;28;1070;-62
2022/09/26 01:20:08;;;;;;;5.80;3.05;;;;;;;;;;514043;28;1409;-62
2022/09/26 01:20:59;;;;;;;5.25;2.90;;;;;;;;;;523561;28;1313;-63
2022/09/26 01:21:20;;;;;;;7.00;3.20;;;;;;;;;;517686;28;1293;-62
2022/09/26 01:21:47;;;;;;;3.88;2.90;;;;;;;;;;520296;28;1024;-62
2022/09/26 01:22:21;;;;;;;6.93;3.00;;;;;;;;;;516483;28;1268;-62
2022/09/26 01:23:07;;;;;;;6.05;3.40;;;;;;;;;;521460;28;1335;-63
2022/09/26 01:23:57;;;;;;;7.40;3.30;;;;;;;;;;525580;28;1184;-63
2022/09/26 01:24:31;;;;;;;5.63;3.10;;;;;;;;;;523880;28;1253;-62
2022/09/26 01:25:00;;;;;;;5.25;3.00;;;;;;;;;;523810;28;1161;-63
2022/09/26 01:25:35;;;;;;;5.55;3.10;;;;;;;;;;522446;28;1102;-62
2022/09/26 01:25:51;;;;;;;7.50;3.38;;;;;;;;;;519873;28;1306;-62
2022/09/26 01:26:48;;;;;;;8.80;3.33;;;;;;;;;;518642;28;1270;-63
2022/09/26 01:27:33;;;;;;;5.78;2.97;;;;;;;;;;517291;28;1110;-63
2022/09/26 01:28:30;;;;;;;5.95;3.20;;;;;;;;;;523406;28;1083;-63
2022/09/26 01:29:18;;;;;;;4.57;2.85;;;;;;;;;;518096;28;1317;-62
2022/09/26 01:29:52;;;;;;;4.88;3.08;;;;;;;;;;513135;28;1337;-62
2022/09/26 01:30:25;;;;;;;4.72;3.15;;;;;;;;;;517777;28;1898;-63
2022/09/26 01:30:46;;;;;;;5.45;2.88;;;;;;;;;;521077;28;4415;-62
2022/09/26 01:31:29;;;;;;;5.70;3.10;;;;;;;;;;525462;28;1179;-62
2022/09/26 01:33:07;;;;;;;6.28;3.25;;;;;;;;;;527033;28;1343;-62
2022/09/26 01:33:50;;;;;;;5.82;3.40;;;;;;;;;;526131;28;1219;-63
2022/09/26 01:34:18;;;;;;;5.97;3.40;;;;;;;;;;525684;28;1098;-63
2022/09/26 01:35:00;;;;;;;6.57;3.22;;;;;;;;;;520825;28;1140;-63
2022/09/26 01:35:40;;;;;;;5.47;3.20;;;;;;;;;;520694;28;1279;-62
2022/09/26 01:36:09;;;;;;;7.35;3.30;;;;;;;;;;523171;28;1106;-62
2022/09/26 01:36:49;;;;;;;5.50;3.50;;;;;;;;;;523804;28;1062;-63
2022/09/26 01:37:26;;;;;;;6.63;3.40;;;;;;;;;;526108;28;1345;-63
2022/09/26 01:38:10;;;;;;;6.28;3.35;;;;;;;;;;522560;28;2024;-63
2022/09/26 01:38:38;;;;;;;5.28;3.22;;;;;;;;;;523643;28;1105;-62
2022/09/26 01:39:15;;;;;;;5.60;3.33;;;;;;;;;;522446;28;1181;-63
2022/09/26 01:39:40;;;;;;;5.78;3.53;;;;;;;;;;524009;28;1015;-62
2022/09/26 01:40:28;;;;;;;8.45;3.33;;;;;;;;;;523406;28;1090;-63
2022/09/26 01:40:52;;;;;;;5.85;3.35;;;;;;;;;;518791;28;1274;-62
2022/09/26 01:41:36;;;;;;;6.82;3.33;;;;;;;;;;516843;28;1446;-62
2022/09/26 01:42:09;;;;;;;5.63;3.38;;;;;;;;;;517195;28;1222;-62
2022/09/26 01:42:30;;;;;;;5.65;3.30;;;;;;;;;;518568;28;1620;-63
2022/09/26 01:43:04;;;;;;;4.47;3.08;;;;;;;;;;519079;28;1099;-63
2022/09/26 01:43:52;;;;;;;4.65;3.35;;;;;;;;;;523883;28;1081;-63
2022/09/26 01:44:35;;;;;;;4.82;3.20;;;;;;;;;;521336;28;1197;-62
2022/09/26 01:45:06;;;;;;;7.30;3.40;;;;;;;;;;526208;28;1133;-62
2022/09/26 01:45:29;;;;;;;5.43;3.20;;;;;;;;;;525556;27;4011;-62
2022/09/26 01:46:13;;;;;;;5.05;3.47;;;;;;;;;;523363;27;1017;-62
2022/09/26 01:46:34;;;;;;;5.50;3.33;;;;;;;;;;516934;28;2008;-62
2022/09/26 01:47:22;;;;;;;5.35;3.33;;;;;;;;;;517349;28;1453;-62
2022/09/26 01:47:44;;;;;;;6.15;3.33;;;;;;;;;;515677;28;1223;-62
2022/09/26 01:48:04;;;;;;;4.85;3.55;;;;;;;;;;516237;28;1465;-62
2022/09/26 01:48:29;;;;;;;4.63;3.35;;;;;;;;;;518731;28;1095;-62
2022/09/26 01:49:14;;;;;;;4.20;3.05;;;;;;;;;;524655;27;1086;-62
2022/09/26 01:49:40;;;;;;;5.60;3.30;;;;;;;;;;517696;28;1294;-62
2022/09/26 01:50:01;;;;;;;4.97;3.42;;;;;;;;;;516188;28;1396;-62
2022/09/26 01:50:44;;;;;;;5.90;3.55;;;;;;;;;;516760;28;1043;-62
2022/09/26 01:51:27;;;;;;;6.00;3.42;;;;;;;;;;521639;28;1162;-63
2022/09/26 01:52:08;;;;;;;5.80;3.40;;;;;;;;;;520462;28;1130;-63
2022/09/26 01:52:28;;;;;;;4.97;3.38;;;;;;;;;;523191;28;1098;-63
2022/09/26 01:53:10;;;;;;;4.53;3.20;;;;;;;;;;522320;28;1352;-63
2022/09/26 01:53:37;;;;;;;5.28;3.40;;;;;;;;;;525485;28;1022;-63
2022/09/26 01:53:58;;;;;;;6.07;3.30;;;;;;;;;;522815;28;2144;-63
2022/09/26 01:54:19;;;;;;;5.28;3.25;;;;;;;;;;522012;28;1162;-62
2022/09/26 01:54:45;;;;;;;5.60;3.38;;;;;;;;;;518104;28;2004;-62
2022/09/26 01:55:14;;;;;;;4.40;3.22;;;;;;;;;;519436;28;1086;-63
2022/09/26 01:55:36;;;;;;;4.38;3.00;;;;;;;;;;521089;28;1022;-62
2022/09/26 01:55:57;;;;;;;5.30;3.20;;;;;;;;;;521317;28;1130;-62
2022/09/26 01:56:17;;;;;;;4.95;3.13;;;;;;;;;;522166;28;1127;-63
2022/09/26 01:56:37;;;;;;;4.57;2.85;;;;;;;;;;524926;28;1164;-63
2022/09/26 01:56:57;;;;;;;4.00;2.90;;;;;;;;;;523521;28;1285;-62
2022/09/26 01:57:18;;;;;;;3.42;3.10;;;;;;;;;;523411;28;1018;-62
2022/09/26 01:57:43;;;;;;;5.68;3.30;;;;;;;;;;524822;28;1058;-63
2022/09/26 01:58:08;;;;;;;5.82;3.20;;;;;;;;;;522251;28;1208;-64
2022/09/26 01:58:36;;;;;;;6.85;3.50;;;;;;;;;;521251;28;1424;-63
2022/09/26 01:59:00;;;;;;;5.57;3.33;;;;;;;;;;520931;28;1346;-63
2022/09/26 01:59:24;;;;;;;4.60;3.00;;;;;;;;;;520240;28;1122;-63
2022/09/26 01:59:45;;;;;;;4.22;3.00;;;;;;;;;;518725;28;1044;-62
2022/09/26 02:00:04;;;;;;;4.28;3.40;;;;;;;;;;520307;28;2755;-62
2022/09/26 02:00:20;;;;;;;4.70;3.42;;;;;;;;;;520212;28;5012;-63
2022/09/26 02:00:38;;;;;;;6.63;3.27;;;;;;;;;;522002;28;1187;-63
2022/09/26 02:00:58;;;;;;;6.25;3.33;;;;;;;;;;523050;28;1076;-62
2022/09/26 02:01:15;;;;;;;4.70;3.30;;;;;;;;;;525617;27;1397;-63
2022/09/26 02:01:36;;;;;;;3.80;3.17;;;;;;;;;;524793;28;1235;-63
2022/09/26 02:01:56;;;;;;;5.10;3.30;;;;;;;;;;526570;27;1349;-63
2022/09/26 02:02:20;;;;;;;5.38;3.25;;;;;;;;;;523913;27;1356;-63
2022/09/26 02:02:41;;;;;;;5.28;3.47;;;;;;;;;;524954;27;1066;-62
2022/09/26 02:02:58;;;;;;;6.43;3.40;;;;;;;;;;528011;27;1084;-63
2022/09/26 02:03:17;;;;;;;5.85;3.45;;;;;;;;;;525702;27;1132;-63
2022/09/26 02:03:37;;;;;;;5.60;3.42;;;;;;;;;;525298;27;1917;-63
2022/09/26 02:03:57;;;;;;;5.80;3.38;;;;;;;;;;522806;28;1340;-63
2022/09/26 02:04:19;;;;;;;4.63;3.40;;;;;;;;;;522792;28;1549;-63
2022/09/26 02:04:40;;;;;;;5.00;3.08;;;;;;;;;;523274;28;1023;-63
2022/09/26 02:05:04;;;;;;;4.60;2.90;;;;;;;;;;523263;28;1098;-62
2022/09/26 02:05:23;;;;;;;5.85;3.40;;;;;;;;;;524028;28;1025;-63
2022/09/26 02:05:47;;;;;;;5.13;3.50;;;;;;;;;;523954;28;1094;-63
2022/09/26 02:06:29;;;;;;;5.22;3.17;;;;;;;;;;523030;28;975;-62
2022/09/26 02:07:33;;;;;;;5.55;3.58;;;;;;;;;;525379;27;1021;-63
2022/09/26 02:08:16;;;;;;;3.50;2.95;;;;;;;;;;517080;28;1318;-63
2022/09/26 02:08:39;;;;;;;4.78;3.20;;;;;;;;;;516485;28;1079;-62
2022/09/26 02:09:03;;;;;;;6.35;3.38;;;;;;;;;;514961;28;1538;-62
2022/09/26 02:09:42;;;;;;;5.25;3.22;;;;;;;;;;514560;28;1095;-63
2022/09/26 02:10:04;;;;;;;3.55;2.75;;;;;;;;;;515684;28;1107;-63
2022/09/26 02:10:26;;;;;;;4.28;2.80;;;;;;;;;;513513;28;1281;-63